Time,TemperatureF,DewpointF,PressureIn,WindDirection,WindDirectionDegrees,WindSpeedMPH,WindSpeedGustMPH,Humidity,HourlyPrecipIn,Conditions,Clouds,dailyrainin,SoftwareType,DateUTC
2013-02-20 00:17:00,26.3,22.0,29.96,NNW,343,0.0,0.0,84,0.00,,,0.00,weatherlink.com 1.10,2013-02-20 08:17:00,
2013-02-20 00:32:00,27.0,23.0,29.96,NNW,343,0.0,0.0,85,0.00,,,0.00,weatherlink.com 1.10,2013-02-20 08:32:00,
2013-02-20 00:47:00,26.6,22.0,29.96,NNW,343,0.0,0.0,84,0.00,,,0.00,weatherlink.com 1.10,2013-02-20 08:47:00,
2013-02-20 01:02:00,26.1,22.0,29.97,NNW,343,0.0,0.0,85,0.00,,,0.00,weatherlink.com 1.10,2013-02-20 09:02:00,
2013-02-20 01:17:00,25.1,21.0,29.97,NNW,343,0.0,0.0,83,0.00,,,0.00,weatherlink.com 1.10,2013-02-20 09:17:00,
2013-02-20 01:34:00,24.7,21.0,29.97,NNW,342,0.0,0.0,86,0.00,,,0.00,weatherlink.com 1.10,2013-02-20 09:34:00,
2013-02-20 01:49:00,24.1,20.0,29.97,West,268,0.0,0.0,84,0.00,,,0.00,weatherlink.com 1.10,2013-02-20 09:49:00,
2013-02-20 02:05:00,24.5,21.0,29.98,West,265,0.0,2.0,86,0.00,,,0.00,weatherlink.com 1.10,2013-02-20 10:05:00,
2013-02-20 02:19:00,24.6,21.0,29.98,West,265,0.0,0.0,85,0.00,,,0.00,weatherlink.com 1.10,2013-02-20 10:19:00,
2013-02-20 02:34:00,24.7,21.0,29.98,West,265,0.0,0.0,86,0.00,,,0.00,weatherlink.com 1.10,2013-02-20 10:34:00,
2013-02-20 02:49:00,24.6,21.0,29.98,West,265,0.0,0.0,86,0.00,,,0.00,weatherlink.com 1.10,2013-02-20 10:49:00,
2013-02-20 03:05:00,24.7,21.0,29.98,WSW,249,0.0,0.0,86,0.00,,,0.00,weatherlink.com 1.10,2013-02-20 11:05:00,
2013-02-20 03:20:00,24.2,20.0,29.98,WSW,246,0.0,4.0,85,0.00,,,0.00,weatherlink.com 1.10,2013-02-20 11:20:00,
2013-02-20 03:35:00,24.6,21.0,29.98,WSW,237,0.0,5.0,86,0.00,,,0.00,weatherlink.com 1.10,2013-02-20 11:35:00,
2013-02-20 03:49:00,23.5,20.0,29.99,WSW,237,0.0,0.0,86,0.00,,,0.00,weatherlink.com 1.10,2013-02-20 11:49:00,
2013-02-20 04:04:00,22.7,19.0,29.99,WSW,237,0.0,0.0,87,0.00,,,0.00,weatherlink.com 1.10,2013-02-20 12:04:00,
2013-02-20 04:19:00,23.1,20.0,30.00,WSW,237,0.0,0.0,88,0.00,,,0.00,weatherlink.com 1.10,2013-02-20 12:19:00,
2013-02-20 04:35:00,22.7,20.0,30.00,WSW,237,0.0,0.0,88,0.00,,,0.00,weatherlink.com 1.10,2013-02-20 12:35:00,
2013-02-20 04:49:00,22.6,20.0,30.00,WSW,237,0.0,0.0,89,0.00,,,0.00,weatherlink.com 1.10,2013-02-20 12:49:00,
2013-02-20 05:04:00,23.1,20.0,30.01,WSW,237,0.0,0.0,88,0.00,,,0.00,weatherlink.com 1.10,2013-02-20 13:04:00,
2013-02-20 05:20:00,22.6,20.0,30.01,SW,231,2.0,4.0,88,0.00,,,0.00,weatherlink.com 1.10,2013-02-20 13:20:00,
2013-02-20 05:35:00,22.1,19.0,30.02,SSW,194,0.0,5.0,88,0.00,,,0.00,weatherlink.com 1.10,2013-02-20 13:35:00,
2013-02-20 05:50:00,23.2,21.0,30.02,SSE,168,1.0,5.0,89,0.00,,,0.00,weatherlink.com 1.10,2013-02-20 13:50:00,
2013-02-20 06:06:00,24.0,21.0,30.02,SSE,156,0.0,7.0,88,0.00,,,0.00,weatherlink.com 1.10,2013-02-20 14:06:00,
2013-02-20 06:20:00,23.7,20.0,30.02,SSE,156,0.0,0.0,86,0.00,,,0.00,weatherlink.com 1.10,2013-02-20 14:20:00,
2013-02-20 06:36:00,22.4,19.0,30.03,SSE,156,0.0,0.0,87,0.00,,,0.00,weatherlink.com 1.10,2013-02-20 14:36:00,
2013-02-20 06:50:00,21.4,18.0,30.03,SSE,156,0.0,0.0,88,0.00,,,0.00,weatherlink.com 1.10,2013-02-20 14:50:00,
2013-02-20 07:06:00,22.3,20.0,30.03,SSE,156,0.0,0.0,89,0.00,,,0.00,weatherlink.com 1.10,2013-02-20 15:06:00,
2013-02-20 07:22:00,22.6,20.0,30.03,SSE,156,0.0,0.0,88,0.00,,,0.00,weatherlink.com 1.10,2013-02-20 15:22:00,
2013-02-20 07:36:00,23.9,21.0,30.03,SSE,156,0.0,0.0,88,0.00,,,0.00,weatherlink.com 1.10,2013-02-20 15:36:00,
2013-02-20 07:51:00,25.6,22.0,30.03,SSE,156,0.0,4.0,87,0.00,,,0.00,weatherlink.com 1.10,2013-02-20 15:51:00,
2013-02-20 08:06:00,25.3,22.0,30.04,SSE,156,0.0,0.0,86,0.00,,,0.00,weatherlink.com 1.10,2013-02-20 16:06:00,
2013-02-20 08:21:00,26.5,23.0,30.03,SSE,156,0.0,0.0,87,0.00,,,0.00,weatherlink.com 1.10,2013-02-20 16:21:00,
2013-02-20 08:37:00,28.1,25.0,30.04,SSE,159,0.0,4.0,87,0.00,,,0.00,weatherlink.com 1.10,2013-02-20 16:37:00,
2013-02-20 08:52:00,29.3,25.0,30.04,South,178,0.0,6.0,84,0.00,,,0.00,weatherlink.com 1.10,2013-02-20 16:52:00,
2013-02-20 09:07:00,30.4,26.0,30.03,SSW,209,0.0,5.0,84,0.00,,,0.00,weatherlink.com 1.10,2013-02-20 17:07:00,
2013-02-20 09:22:00,31.3,26.0,30.04,WSW,240,4.0,8.0,82,0.00,,,0.00,weatherlink.com 1.10,2013-02-20 17:22:00,
2013-02-20 09:37:00,32.8,27.0,30.04,WSW,246,4.0,6.0,80,0.00,,,0.00,weatherlink.com 1.10,2013-02-20 17:37:00,
2013-02-20 09:52:00,34.4,28.0,30.04,SW,227,0.0,6.0,78,0.00,,,0.00,weatherlink.com 1.10,2013-02-20 17:52:00,
2013-02-20 10:07:00,35.5,29.0,30.03,SW,226,0.0,0.0,77,0.00,,,0.00,weatherlink.com 1.10,2013-02-20 18:07:00,
2013-02-20 10:24:00,37.3,30.0,30.03,SW,226,0.0,0.0,74,0.00,,,0.00,weatherlink.com 1.10,2013-02-20 18:24:00,
2013-02-20 10:39:00,38.6,28.0,30.03,South,187,0.0,7.0,66,0.00,,,0.00,weatherlink.com 1.10,2013-02-20 18:39:00,
2013-02-20 10:54:00,39.1,28.0,30.03,SSW,200,0.0,6.0,65,0.00,,,0.00,weatherlink.com 1.10,2013-02-20 18:54:00,
2013-02-20 11:09:00,39.9,27.0,30.03,South,188,4.0,7.0,61,0.00,,,0.00,weatherlink.com 1.10,2013-02-20 19:09:00,
2013-02-20 11:24:00,41.3,27.0,30.03,SSW,197,2.0,7.0,57,0.00,,,0.00,weatherlink.com 1.10,2013-02-20 19:24:00,
2013-02-20 11:39:00,42.4,27.0,30.02,South,173,4.0,8.0,55,0.00,,,0.00,weatherlink.com 1.10,2013-02-20 19:39:00,
2013-02-20 11:54:00,42.6,27.0,30.01,SW,216,4.0,9.0,54,0.00,,,0.00,weatherlink.com 1.10,2013-02-20 19:54:00,
2013-02-20 12:09:00,43.2,26.0,30.01,WSW,253,5.0,9.0,52,0.00,,,0.00,weatherlink.com 1.10,2013-02-20 20:09:00,
2013-02-20 12:24:00,43.7,26.0,30.01,SSW,202,0.0,7.0,50,0.00,,,0.00,weatherlink.com 1.10,2013-02-20 20:24:00,
2013-02-20 12:40:00,43.8,25.0,30.00,West,272,0.0,9.0,48,0.00,,,0.00,weatherlink.com 1.10,2013-02-20 20:40:00,
2013-02-20 12:55:00,43.1,25.0,30.00,WSW,252,4.0,9.0,49,0.00,,,0.00,weatherlink.com 1.10,2013-02-20 20:55:00,
2013-02-20 13:10:00,44.0,25.0,30.00,SSW,207,0.0,5.0,48,0.00,,,0.00,weatherlink.com 1.10,2013-02-20 21:10:00,
2013-02-20 13:25:00,43.8,25.0,30.00,WNW,302,2.0,5.0,47,0.00,,,0.00,weatherlink.com 1.10,2013-02-20 21:25:00,
2013-02-20 13:40:00,44.5,25.0,29.98,WNW,302,0.0,0.0,47,0.00,,,0.00,weatherlink.com 1.10,2013-02-20 21:40:00,
2013-02-20 13:55:00,45.1,25.0,29.98,WNW,302,0.0,0.0,46,0.00,,,0.00,weatherlink.com 1.10,2013-02-20 21:55:00,
2013-02-20 14:11:00,45.2,26.0,29.97,NNW,327,5.0,7.0,48,0.00,,,0.00,weatherlink.com 1.10,2013-02-20 22:11:00,
2013-02-20 14:26:00,44.5,26.0,29.97,NW,314,0.0,6.0,49,0.00,,,0.00,weatherlink.com 1.10,2013-02-20 22:26:00,
2013-02-20 14:41:00,44.0,25.0,29.96,NW,315,5.0,7.0,48,0.00,,,0.00,weatherlink.com 1.10,2013-02-20 22:41:00,
2013-02-20 14:56:00,44.0,26.0,29.97,NW,315,0.0,4.0,49,0.00,,,0.00,weatherlink.com 1.10,2013-02-20 22:56:00,
2013-02-20 15:11:00,44.5,26.0,29.96,NNE,22,0.0,5.0,48,0.00,,,0.00,weatherlink.com 1.10,2013-02-20 23:11:00,
2013-02-20 15:26:00,43.5,27.0,29.96,NNW,330,3.0,10.0,53,0.00,,,0.00,weatherlink.com 1.10,2013-02-20 23:26:00,
2013-02-20 15:41:00,42.6,27.0,29.96,NW,314,8.0,12.0,54,0.00,,,0.00,weatherlink.com 1.10,2013-02-20 23:41:00,
2013-02-20 15:57:00,42.5,27.0,29.97,NNW,329,5.0,8.0,54,0.00,,,0.00,weatherlink.com 1.10,2013-02-20 23:57:00,
2013-02-20 16:12:00,42.4,27.0,29.97,NNW,336,3.0,9.0,54,0.00,,,0.00,weatherlink.com 1.10,2013-02-21 00:12:00,
2013-02-20 16:27:00,41.6,26.0,29.97,NW,321,8.0,14.0,54,0.00,,,0.00,weatherlink.com 1.10,2013-02-21 00:27:00,
2013-02-20 16:42:00,40.9,26.0,29.97,NW,309,9.0,12.0,56,0.00,,,0.00,weatherlink.com 1.10,2013-02-21 00:42:00,
2013-02-20 16:57:00,40.7,27.0,29.97,West,279,7.0,13.0,59,0.00,,,0.00,weatherlink.com 1.10,2013-02-21 00:57:00,
2013-02-20 17:12:00,39.4,28.0,29.98,West,279,0.0,0.0,64,0.00,,,0.00,weatherlink.com 1.10,2013-02-21 01:12:00,
2013-02-20 17:27:00,39.5,28.0,29.97,SW,229,0.0,0.0,63,0.00,,,0.00,weatherlink.com 1.10,2013-02-21 01:27:00,
2013-02-20 17:42:00,38.9,28.0,29.98,SW,229,0.0,0.0,64,0.00,,,0.00,weatherlink.com 1.10,2013-02-21 01:42:00,
2013-02-20 17:59:00,38.8,27.0,29.98,SSE,153,0.0,0.0,62,0.00,,,0.00,weatherlink.com 1.10,2013-02-21 01:59:00,
2013-02-20 18:14:00,38.8,27.0,29.98,SSE,153,0.0,0.0,63,0.00,,,0.00,weatherlink.com 1.10,2013-02-21 02:14:00,
2013-02-20 18:29:00,38.9,28.0,29.99,South,178,0.0,5.0,64,0.00,,,0.00,weatherlink.com 1.10,2013-02-21 02:29:00,
2013-02-20 18:44:00,38.1,28.0,30.00,SSE,161,0.0,0.0,66,0.00,,,0.00,weatherlink.com 1.10,2013-02-21 02:44:00,
2013-02-20 18:59:00,36.8,28.0,30.00,ESE,115,0.0,1.0,70,0.00,,,0.00,weatherlink.com 1.10,2013-02-21 02:59:00,
2013-02-20 19:14:00,35.9,29.0,30.00,ESE,102,0.0,5.0,75,0.00,,,0.00,weatherlink.com 1.10,2013-02-21 03:14:00,
2013-02-20 19:29:00,35.4,29.0,30.00,ESE,103,3.0,6.0,78,0.00,,,0.00,weatherlink.com 1.10,2013-02-21 03:29:00,
2013-02-20 19:44:00,34.9,29.0,30.00,ESE,107,0.0,5.0,80,0.00,,,0.00,weatherlink.com 1.10,2013-02-21 03:44:00,
2013-02-20 19:59:00,34.4,29.0,30.01,ESE,107,0.0,0.0,81,0.00,,,0.00,weatherlink.com 1.10,2013-02-21 03:59:00,
2013-02-20 20:14:00,34.1,29.0,30.01,ESE,107,0.0,0.0,82,0.00,,,0.00,weatherlink.com 1.10,2013-02-21 04:14:00,
2013-02-20 20:29:00,34.4,30.0,30.01,ESE,107,0.0,0.0,83,0.00,,,0.00,weatherlink.com 1.10,2013-02-21 04:29:00,
2013-02-20 20:44:00,33.8,29.0,30.02,ESE,107,0.0,0.0,83,0.00,,,0.00,weatherlink.com 1.10,2013-02-21 04:44:00,
2013-02-20 20:59:00,33.2,29.0,30.02,ESE,107,0.0,0.0,83,0.00,,,0.00,weatherlink.com 1.10,2013-02-21 04:59:00,
2013-02-20 21:14:00,33.2,29.0,30.02,ESE,107,0.0,0.0,84,0.00,,,0.00,weatherlink.com 1.10,2013-02-21 05:14:00,
2013-02-20 21:29:00,33.4,29.0,30.02,ESE,107,0.0,0.0,85,0.00,,,0.00,weatherlink.com 1.10,2013-02-21 05:29:00,
2013-02-20 21:45:00,33.3,29.0,30.02,ESE,107,0.0,0.0,85,0.00,,,0.00,weatherlink.com 1.10,2013-02-21 05:45:00,
2013-02-20 22:00:00,32.8,29.0,30.02,ESE,107,0.0,0.0,84,0.00,,,0.00,weatherlink.com 1.10,2013-02-21 06:00:00,
2013-02-20 22:15:00,32.2,28.0,30.02,ESE,107,0.0,0.0,85,0.00,,,0.00,weatherlink.com 1.10,2013-02-21 06:15:00,
2013-02-20 22:30:00,32.2,29.0,30.02,ESE,107,0.0,0.0,86,0.00,,,0.00,weatherlink.com 1.10,2013-02-21 06:30:00,
2013-02-20 22:45:00,32.3,28.0,30.03,ESE,107,0.0,0.0,85,0.00,,,0.00,weatherlink.com 1.10,2013-02-21 06:45:00,
2013-02-20 23:00:00,32.4,28.0,30.02,ESE,107,0.0,0.0,83,0.00,,,0.00,weatherlink.com 1.10,2013-02-21 07:00:00,
2013-02-20 23:15:00,31.2,26.0,30.02,ESE,107,0.0,0.0,80,0.00,,,0.00,weatherlink.com 1.10,2013-02-21 07:15:00,
2013-02-20 23:30:00,30.5,26.0,30.02,ESE,109,0.0,2.0,82,0.00,,,0.00,weatherlink.com 1.10,2013-02-21 07:30:00,
2013-02-20 23:46:00,30.1,25.0,30.03,ESE,114,0.0,3.0,81,0.00,,,0.00,weatherlink.com 1.10,2013-02-21 07:46:00,